Zahedan International Airport
OIZH : now visible

Airfield :











YOU CAN JOIN US ON...

 
LOGIN :

Register | Disclaimer

   EN    FR    IT 

 









Legend :    VFR   Marginal VFR   IFR   Intensive IFR   Very Intensive IFR
Visi :
Ceiling :
>= 8 km
>= 3000ft
5 to 8 km
1000 to 3000 ft
1500m to 5 km
500 to 1000 ft
800 to 1500m
200 to 500 ft
< 800m
< 200 ft
Symbols :   Thunderstorms  Fog  Heavy snow  Heavy precipitations  Wind > 20 kt






- Airport Elevation : 4564 ft
- IATA code : ZAH


OIZH - Zahedan International

CURRENT METAR :
  • 031000Z 03010KT CAVOK 23/M02 Q1019 A3012 NOSIG

EXPIRED METARs :
  • 030930Z 03010KT CAVOK 24/M04 Q1020 A3012
  • 030900Z 35004KT CAVOK 25/M05 Q1020 A3013 NOSIG
  • 030830Z 11004KT CAVOK 25/M06 Q1020 A3014
  • 030800Z 04004KT CAVOK 24/M05 Q1021 A3017 NOSIG
  • 030730Z 05004KT CAVOK 23/M05 Q1022 A3018

TAF TAF OIZH
Valid from the 03 at 06:00 until the 04 at 12:00 UTC


030530Z 0306/0412 03006KT CAVOK
TEMPO 0310/0314 03018KT
TEMPO 0410/0414 03016KT
OIIX FIR / Asia



MET'MAP, your aeronautical weather chart ! - Copyright ORBIFLY December 2007 - Disclaimer

ORBIFLY MET'MAP TEAM :

Programming & Development : Alexandra Zaïnal
Concept & original design : Baudouin d'Aumeries
Assistance for programming : Marc-Olivier Méhu
Technical & hardware support : Manuel Goepfert

Contact : metmap@orbifly.com




SOURCES & CREDITS :

   NOAA       Earth
Advisory